sensor_id;sensor_type;location;lat;lon;timestamp;pressure;altitude;pressure_sealevel;temperature;humidity
12471;BME280;36499;46.484;13.832;2024-03-25T00:01:22;92166.03;;;-0.82;100.00
12471;BME280;36499;46.484;13.832;2024-03-25T00:03:48;92161.34;;;-0.96;100.00
12471;BME280;36499;46.484;13.832;2024-03-25T00:06:14;92168.19;;;-0.97;100.00
12471;BME280;36499;46.484;13.832;2024-03-25T00:08:40;92161.09;;;-1.03;100.00
12471;BME280;36499;46.484;13.832;2024-03-25T00:11:07;92167.53;;;-1.08;100.00
12471;BME280;36499;46.484;13.832;2024-03-25T00:13:33;92162.56;;;-1.10;100.00
12471;BME280;36499;46.484;13.832;2024-03-25T00:15:59;92164.97;;;-1.08;100.00
12471;BME280;36499;46.484;13.832;2024-03-25T00:18:25;92165.38;;;-1.03;100.00
12471;BME280;36499;46.484;13.832;2024-03-25T00:20:52;92173.16;;;-0.86;100.00
12471;BME280;36499;46.484;13.832;2024-03-25T00:23:17;92166.31;;;-0.95;100.00
12471;BME280;36499;46.484;13.832;2024-03-25T00:25:44;92165.91;;;-1.00;100.00
12471;BME280;36499;46.484;13.832;2024-03-25T00:28:10;92160.81;;;-1.00;100.00
12471;BME280;36499;46.484;13.832;2024-03-25T00:30:36;92161.22;;;-0.95;100.00
12471;BME280;36499;46.484;13.832;2024-03-25T00:33:02;92169.41;;;-0.91;100.00
12471;BME280;36499;46.484;13.832;2024-03-25T00:35:28;92167.63;;;-0.81;100.00
12471;BME280;36499;46.484;13.832;2024-03-25T00:37:54;92168.47;;;-0.90;100.00
12471;BME280;36499;46.484;13.832;2024-03-25T00:40:20;92162.91;;;-0.76;100.00
12471;BME280;36499;46.484;13.832;2024-03-25T00:42:46;92170.56;;;-0.76;100.00
12471;BME280;36499;46.484;13.832;2024-03-25T00:45:13;92167.28;;;-0.59;100.00
12471;BME280;36499;46.484;13.832;2024-03-25T00:47:38;92167.81;;;-0.55;100.00
12471;BME280;36499;46.484;13.832;2024-03-25T00:50:05;92170.75;;;-0.50;100.00
12471;BME280;36499;46.484;13.832;2024-03-25T00:52:31;92174.78;;;-0.48;100.00
12471;BME280;36499;46.484;13.832;2024-03-25T00:54:58;92180.22;;;-0.33;100.00
12471;BME280;36499;46.484;13.832;2024-03-25T00:57:23;92180.56;;;-0.46;100.00
12471;BME280;36499;46.484;13.832;2024-03-25T00:59:50;92173.31;;;-0.50;100.00
12471;BME280;36499;46.484;13.832;2024-03-25T01:02:15;92176.72;;;-0.69;100.00
12471;BME280;36499;46.484;13.832;2024-03-25T01:04:42;92179.50;;;-0.53;100.00
12471;BME280;36499;46.484;13.832;2024-03-25T01:07:08;92173.25;;;-0.40;100.00
12471;BME280;36499;46.484;13.832;2024-03-25T01:09:35;92169.97;;;-0.51;100.00
12471;BME280;36499;46.484;13.832;2024-03-25T01:12:00;92169.19;;;-0.70;100.00
12471;BME280;36499;46.484;13.832;2024-03-25T01:14:27;92164.75;;;-0.68;100.00
12471;BME280;36499;46.484;13.832;2024-03-25T01:16:53;92166.44;;;-0.77;100.00
12471;BME280;36499;46.484;13.832;2024-03-25T01:19:19;92170.53;;;-0.66;100.00
12471;BME280;36499;46.484;13.832;2024-03-25T01:21:46;92173.09;;;-0.76;100.00
12471;BME280;36499;46.484;13.832;2024-03-25T01:24:12;92169.47;;;-0.64;100.00
12471;BME280;36499;46.484;13.832;2024-03-25T01:26:38;92164.91;;;-0.70;100.00
12471;BME280;36499;46.484;13.832;2024-03-25T01:29:05;92165.09;;;-0.81;100.00
12471;BME280;36499;46.484;13.832;2024-03-25T01:31:30;92161.34;;;-1.06;100.00
12471;BME280;36499;46.484;13.832;2024-03-25T01:33:57;92165.41;;;-1.32;100.00
12471;BME280;36499;46.484;13.832;2024-03-25T01:36:22;92160.75;;;-1.47;100.00
12471;BME280;36499;46.484;13.832;2024-03-25T01:38:49;92167.56;;;-1.37;100.00
12471;BME280;36499;46.484;13.832;2024-03-25T01:41:21;92165.00;;;-1.28;100.00
12471;BME280;36499;46.484;13.832;2024-03-25T01:43:48;92164.88;;;-1.36;100.00
12471;BME280;36499;46.484;13.832;2024-03-25T01:46:15;92158.97;;;-1.36;100.00
12471;BME280;36499;46.484;13.832;2024-03-25T01:48:44;92157.63;;;-1.31;100.00
12471;BME280;36499;46.484;13.832;2024-03-25T01:51:11;92158.97;;;-1.36;100.00
12471;BME280;36499;46.484;13.832;2024-03-25T01:53:39;92160.59;;;-1.55;100.00
12471;BME280;36499;46.484;13.832;2024-03-25T01:56:05;92162.34;;;-1.36;100.00
12471;BME280;36499;46.484;13.832;2024-03-25T01:58:32;92160.06;;;-1.29;100.00
12471;BME280;36499;46.484;13.832;2024-03-25T02:00:58;92158.72;;;-1.24;100.00
12471;BME280;36499;46.484;13.832;2024-03-25T02:03:27;92156.53;;;-1.09;100.00
12471;BME280;36499;46.484;13.832;2024-03-25T02:06:00;92159.75;;;-0.97;100.00
12471;BME280;36499;46.484;13.832;2024-03-25T02:08:28;92154.09;;;-1.01;100.00
12471;BME280;36499;46.484;13.832;2024-03-25T02:10:57;92150.47;;;-0.89;100.00
12471;BME280;36499;46.484;13.832;2024-03-25T02:13:25;92158.66;;;-0.95;100.00
12471;BME280;36499;46.484;13.832;2024-03-25T02:15:50;92150.47;;;-0.98;100.00
12471;BME280;36499;46.484;13.832;2024-03-25T02:18:18;92155.72;;;-1.09;100.00
12471;BME280;36499;46.484;13.832;2024-03-25T02:20:44;92157.91;;;-1.34;100.00
12471;BME280;36499;46.484;13.832;2024-03-25T02:23:12;92150.16;;;-1.52;100.00
12471;BME280;36499;46.484;13.832;2024-03-25T02:25:38;92156.31;;;-1.64;100.00
12471;BME280;36499;46.484;13.832;2024-03-25T02:28:05;92147.19;;;-1.66;100.00
12471;BME280;36499;46.484;13.832;2024-03-25T02:30:31;92141.41;;;-1.88;100.00
12471;BME280;36499;46.484;13.832;2024-03-25T02:32:57;92148.00;;;-1.85;100.00
12471;BME280;36499;46.484;13.832;2024-03-25T02:35:24;92147.72;;;-1.72;100.00
12471;BME280;36499;46.484;13.832;2024-03-25T02:37:51;92145.72;;;-1.69;100.00
12471;BME280;36499;46.484;13.832;2024-03-25T02:40:18;92149.06;;;-1.68;100.00
12471;BME280;36499;46.484;13.832;2024-03-25T02:42:45;92148.66;;;-1.54;100.00
12471;BME280;36499;46.484;13.832;2024-03-25T02:45:11;92142.50;;;-1.52;100.00
12471;BME280;36499;46.484;13.832;2024-03-25T02:47:38;92139.97;;;-1.52;100.00
12471;BME280;36499;46.484;13.832;2024-03-25T02:50:04;92147.06;;;-1.55;100.00
12471;BME280;36499;46.484;13.832;2024-03-25T02:52:31;92141.16;;;-1.56;100.00
12471;BME280;36499;46.484;13.832;2024-03-25T02:54:56;92148.94;;;-1.48;100.00
12471;BME280;36499;46.484;13.832;2024-03-25T02:57:23;92155.78;;;-1.48;100.00
12471;BME280;36499;46.484;13.832;2024-03-25T02:59:49;92155.75;;;-1.38;100.00
12471;BME280;36499;46.484;13.832;2024-03-25T03:02:15;92162.06;;;-1.71;100.00
12471;BME280;36499;46.484;13.832;2024-03-25T03:04:41;92157.22;;;-1.94;100.00
12471;BME280;36499;46.484;13.832;2024-03-25T03:07:07;92161.78;;;-1.88;100.00
12471;BME280;36499;46.484;13.832;2024-03-25T03:09:33;92162.97;;;-1.92;100.00
12471;BME280;36499;46.484;13.832;2024-03-25T03:12:00;92173.03;;;-1.90;100.00
12471;BME280;36499;46.484;13.832;2024-03-25T03:14:25;92166.53;;;-2.14;100.00
12471;BME280;36499;46.484;13.832;2024-03-25T03:16:52;92164.97;;;-1.95;100.00
12471;BME280;36499;46.484;13.832;2024-03-25T03:19:20;92170.06;;;-1.95;100.00
12471;BME280;36499;46.484;13.832;2024-03-25T03:21:47;92171.16;;;-1.78;100.00
12471;BME280;36499;46.484;13.832;2024-03-25T03:24:12;92169.13;;;-1.94;100.00
12471;BME280;36499;46.484;13.832;2024-03-25T03:26:39;92167.09;;;-2.00;100.00
12471;BME280;36499;46.484;13.832;2024-03-25T03:29:04;92162.16;;;-2.02;100.00
12471;BME280;36499;46.484;13.832;2024-03-25T03:31:31;92168.16;;;-2.13;100.00
12471;BME280;36499;46.484;13.832;2024-03-25T03:33:56;92164.41;;;-2.18;100.00
12471;BME280;36499;46.484;13.832;2024-03-25T03:36:23;92167.22;;;-2.21;100.00
12471;BME280;36499;46.484;13.832;2024-03-25T03:38:51;92170.09;;;-2.35;100.00
12471;BME280;36499;46.484;13.832;2024-03-25T03:41:19;92168.97;;;-2.52;100.00
12471;BME280;36499;46.484;13.832;2024-03-25T03:43:44;92172.84;;;-2.58;100.00
12471;BME280;36499;46.484;13.832;2024-03-25T03:46:11;92176.00;;;-2.65;100.00
12471;BME280;36499;46.484;13.832;2024-03-25T03:48:37;92178.88;;;-2.49;100.00
12471;BME280;36499;46.484;13.832;2024-03-25T03:51:07;92172.38;;;-2.32;100.00
12471;BME280;36499;46.484;13.832;2024-03-25T03:53:34;92178.50;;;-2.44;100.00
12471;BME280;36499;46.484;13.832;2024-03-25T03:56:03;92179.72;;;-2.39;100.00
12471;BME280;36499;46.484;13.832;2024-03-25T03:58:30;92184.13;;;-2.41;100.00
12471;BME280;36499;46.484;13.832;2024-03-25T04:00:57;92175.94;;;-2.44;100.00
12471;BME280;36499;46.484;13.832;2024-03-25T04:03:23;92185.19;;;-2.43;100.00
12471;BME280;36499;46.484;13.832;2024-03-25T04:05:50;92181.41;;;-2.49;100.00
12471;BME280;36499;46.484;13.832;2024-03-25T04:08:16;92193.06;;;-2.47;100.00
12471;BME280;36499;46.484;13.832;2024-03-25T04:10:44;92194.44;;;-2.42;100.00
12471;BME280;36499;46.484;13.832;2024-03-25T04:13:10;92202.78;;;-2.31;100.00
12471;BME280;36499;46.484;13.832;2024-03-25T04:15:41;92197.81;;;-2.32;100.00
12471;BME280;36499;46.484;13.832;2024-03-25T04:18:08;92203.03;;;-2.34;100.00
12471;BME280;36499;46.484;13.832;2024-03-25T04:20:41;92213.84;;;-2.41;100.00
12471;BME280;36499;46.484;13.832;2024-03-25T04:23:07;92216.50;;;-2.53;100.00
12471;BME280;36499;46.484;13.832;2024-03-25T04:25:34;92216.44;;;-2.62;100.00
12471;BME280;36499;46.484;13.832;2024-03-25T04:28:03;92221.66;;;-2.64;100.00
12471;BME280;36499;46.484;13.832;2024-03-25T04:30:28;92221.41;;;-2.61;100.00
12471;BME280;36499;46.484;13.832;2024-03-25T04:32:55;92219.91;;;-2.63;100.00
12471;BME280;36499;46.484;13.832;2024-03-25T04:35:21;92225.31;;;-2.57;100.00
12471;BME280;36499;46.484;13.832;2024-03-25T04:37:47;92228.22;;;-2.61;100.00
12471;BME280;36499;46.484;13.832;2024-03-25T04:40:13;92214.47;;;-2.59;100.00
12471;BME280;36499;46.484;13.832;2024-03-25T04:42:39;92226.50;;;-2.61;100.00
12471;BME280;36499;46.484;13.832;2024-03-25T04:45:05;92220.22;;;-2.57;100.00
12471;BME280;36499;46.484;13.832;2024-03-25T04:47:31;92215.69;;;-2.53;100.00
12471;BME280;36499;46.484;13.832;2024-03-25T04:49:56;92218.91;;;-2.51;100.00
12471;BME280;36499;46.484;13.832;2024-03-25T04:52:22;92225.25;;;-2.66;100.00
12471;BME280;36499;46.484;13.832;2024-03-25T04:54:48;92213.03;;;-2.72;100.00
12471;BME280;36499;46.484;13.832;2024-03-25T04:57:14;92224.44;;;-2.67;100.00
12471;BME280;36499;46.484;13.832;2024-03-25T04:59:39;92217.63;;;-2.66;100.00
12471;BME280;36499;46.484;13.832;2024-03-25T05:02:05;92223.41;;;-2.64;100.00
12471;BME280;36499;46.484;13.832;2024-03-25T05:04:31;92221.41;;;-2.61;100.00
12471;BME280;36499;46.484;13.832;2024-03-25T05:06:56;92227.66;;;-2.65;100.00
12471;BME280;36499;46.484;13.832;2024-03-25T05:09:22;92224.56;;;-2.68;100.00
12471;BME280;36499;46.484;13.832;2024-03-25T05:11:47;92227.84;;;-2.57;100.00
12471;BME280;36499;46.484;13.832;2024-03-25T05:14:13;92234.44;;;-2.54;100.00
12471;BME280;36499;46.484;13.832;2024-03-25T05:16:39;92236.41;;;-2.58;100.00
12471;BME280;36499;46.484;13.832;2024-03-25T05:19:04;92238.53;;;-2.63;100.00
12471;BME280;36499;46.484;13.832;2024-03-25T05:21:33;92243.84;;;-2.66;100.00
12471;BME280;36499;46.484;13.832;2024-03-25T05:23:59;92247.34;;;-2.67;100.00
12471;BME280;36499;46.484;13.832;2024-03-25T05:26:25;92246.53;;;-2.67;100.00
12471;BME280;36499;46.484;13.832;2024-03-25T05:28:56;92252.22;;;-2.54;100.00
12471;BME280;36499;46.484;13.832;2024-03-25T05:31:23;92248.84;;;-2.34;100.00
12471;BME280;36499;46.484;13.832;2024-03-25T05:33:49;92259.75;;;-2.22;100.00
12471;BME280;36499;46.484;13.832;2024-03-25T05:36:14;92255.47;;;-2.12;100.00
12471;BME280;36499;46.484;13.832;2024-03-25T05:38:40;92252.13;;;-2.13;100.00
12471;BME280;36499;46.484;13.832;2024-03-25T05:41:06;92260.84;;;-2.15;100.00
12471;BME280;36499;46.484;13.832;2024-03-25T05:43:32;92267.50;;;-2.24;100.00
12471;BME280;36499;46.484;13.832;2024-03-25T05:45:57;92265.91;;;-2.25;100.00
12471;BME280;36499;46.484;13.832;2024-03-25T05:48:26;92260.03;;;-2.16;100.00
12471;BME280;36499;46.484;13.832;2024-03-25T05:51:03;92263.41;;;-2.05;100.00
12471;BME280;36499;46.484;13.832;2024-03-25T05:53:29;92258.41;;;-1.76;100.00
12471;BME280;36499;46.484;13.832;2024-03-25T05:55:55;92266.50;;;-1.62;100.00
12471;BME280;36499;46.484;13.832;2024-03-25T05:58:21;92270.09;;;-1.64;100.00
12471;BME280;36499;46.484;13.832;2024-03-25T06:00:50;92279.63;;;-1.66;100.00
12471;BME280;36499;46.484;13.832;2024-03-25T06:03:16;92272.25;;;-1.69;100.00
12471;BME280;36499;46.484;13.832;2024-03-25T06:05:42;92276.13;;;-1.65;100.00
12471;BME280;36499;46.484;13.832;2024-03-25T06:08:08;92272.91;;;-1.67;100.00
12471;BME280;36499;46.484;13.832;2024-03-25T06:10:37;92278.72;;;-1.56;100.00
12471;BME280;36499;46.484;13.832;2024-03-25T06:13:03;92272.94;;;-1.58;100.00
12471;BME280;36499;46.484;13.832;2024-03-25T06:15:29;92272.31;;;-1.50;100.00
12471;BME280;36499;46.484;13.832;2024-03-25T06:17:54;92266.78;;;-1.55;100.00
12471;BME280;36499;46.484;13.832;2024-03-25T06:20:20;92272.81;;;-1.56;100.00
12471;BME280;36499;46.484;13.832;2024-03-25T06:22:46;92274.84;;;-1.40;100.00
12471;BME280;36499;46.484;13.832;2024-03-25T06:25:11;92272.34;;;-1.21;100.00
12471;BME280;36499;46.484;13.832;2024-03-25T06:27:37;92265.88;;;-1.06;100.00
12471;BME280;36499;46.484;13.832;2024-03-25T06:30:03;92271.53;;;-1.02;100.00
12471;BME280;36499;46.484;13.832;2024-03-25T06:32:43;92277.56;;;-0.94;100.00
12471;BME280;36499;46.484;13.832;2024-03-25T06:35:27;92279.72;;;-0.80;100.00
12471;BME280;36499;46.484;13.832;2024-03-25T06:37:54;92279.59;;;-0.78;100.00
12471;BME280;36499;46.484;13.832;2024-03-25T06:40:20;92278.63;;;-0.58;100.00
12471;BME280;36499;46.484;13.832;2024-03-25T06:42:45;92273.78;;;-0.51;100.00
12471;BME280;36499;46.484;13.832;2024-03-25T06:45:11;92271.50;;;-0.44;100.00
12471;BME280;36499;46.484;13.832;2024-03-25T06:47:37;92274.41;;;-0.39;100.00
12471;BME280;36499;46.484;13.832;2024-03-25T06:50:02;92280.84;;;-0.26;100.00
12471;BME280;36499;46.484;13.832;2024-03-25T06:52:28;92272.91;;;-0.32;100.00
12471;BME280;36499;46.484;13.832;2024-03-25T06:54:54;92271.44;;;-0.25;100.00
12471;BME280;36499;46.484;13.832;2024-03-25T06:57:19;92273.16;;;-0.16;100.00
12471;BME280;36499;46.484;13.832;2024-03-25T06:59:48;92282.25;;;-0.04;100.00
12471;BME280;36499;46.484;13.832;2024-03-25T07:02:13;92283.56;;;0.00;100.00
12471;BME280;36499;46.484;13.832;2024-03-25T07:04:39;92270.47;;;0.23;100.00
12471;BME280;36499;46.484;13.832;2024-03-25T07:07:04;92278.06;;;0.32;100.00
12471;BME280;36499;46.484;13.832;2024-03-25T07:09:30;92275.47;;;0.42;100.00
12471;BME280;36499;46.484;13.832;2024-03-25T07:11:56;92277.03;;;0.52;100.00
12471;BME280;36499;46.484;13.832;2024-03-25T07:14:21;92281.78;;;0.65;100.00
12471;BME280;36499;46.484;13.832;2024-03-25T07:16:47;92284.81;;;0.78;100.00
12471;BME280;36499;46.484;13.832;2024-03-25T07:19:12;92286.38;;;0.89;100.00
12471;BME280;36499;46.484;13.832;2024-03-25T07:21:38;92290.16;;;1.03;100.00
12471;BME280;36499;46.484;13.832;2024-03-25T07:24:04;92288.63;;;1.10;100.00
12471;BME280;36499;46.484;13.832;2024-03-25T07:26:29;92287.75;;;1.19;100.00
12471;BME280;36499;46.484;13.832;2024-03-25T07:28:55;92293.91;;;1.26;100.00
12471;BME280;36499;46.484;13.832;2024-03-25T07:31:21;92288.50;;;1.29;100.00
12471;BME280;36499;46.484;13.832;2024-03-25T07:33:46;92291.09;;;1.37;100.00
12471;BME280;36499;46.484;13.832;2024-03-25T07:36:12;92298.28;;;1.51;100.00
12471;BME280;36499;46.484;13.832;2024-03-25T07:38:37;92302.16;;;1.55;100.00
12471;BME280;36499;46.484;13.832;2024-03-25T07:41:06;92295.19;;;1.66;100.00
12471;BME280;36499;46.484;13.832;2024-03-25T07:43:32;92292.38;;;1.77;100.00
12471;BME280;36499;46.484;13.832;2024-03-25T07:45:57;92289.72;;;1.86;100.00
12471;BME280;36499;46.484;13.832;2024-03-25T07:48:23;92292.38;;;2.03;100.00
12471;BME280;36499;46.484;13.832;2024-03-25T07:50:48;92286.69;;;2.17;100.00
12471;BME280;36499;46.484;13.832;2024-03-25T07:53:14;92278.28;;;2.33;100.00
12471;BME280;36499;46.484;13.832;2024-03-25T07:55:39;92277.72;;;2.55;100.00
12471;BME280;36499;46.484;13.832;2024-03-25T07:58:05;92283.69;;;2.64;100.00
12471;BME280;36499;46.484;13.832;2024-03-25T08:00:31;92277.94;;;2.70;100.00
12471;BME280;36499;46.484;13.832;2024-03-25T08:02:56;92274.63;;;2.85;100.00
12471;BME280;36499;46.484;13.832;2024-03-25T08:05:22;92277.38;;;2.92;100.00
12471;BME280;36499;46.484;13.832;2024-03-25T08:07:47;92283.00;;;3.12;100.00
12471;BME280;36499;46.484;13.832;2024-03-25T08:10:13;92278.22;;;3.25;100.00
12471;BME280;36499;46.484;13.832;2024-03-25T08:12:39;92271.50;;;3.32;100.00
12471;BME280;36499;46.484;13.832;2024-03-25T08:15:05;92271.66;;;3.31;100.00
12471;BME280;36499;46.484;13.832;2024-03-25T08:17:30;92273.41;;;3.30;100.00
12471;BME280;36499;46.484;13.832;2024-03-25T08:19:56;92278.88;;;3.51;100.00
12471;BME280;36499;46.484;13.832;2024-03-25T08:22:22;92265.22;;;3.67;100.00
12471;BME280;36499;46.484;13.832;2024-03-25T08:24:47;92269.53;;;3.83;100.00
12471;BME280;36499;46.484;13.832;2024-03-25T08:27:13;92275.00;;;3.96;100.00
12471;BME280;36499;46.484;13.832;2024-03-25T08:29:38;92279.00;;;4.07;100.00
12471;BME280;36499;46.484;13.832;2024-03-25T08:32:04;92282.38;;;4.15;100.00
12471;BME280;36499;46.484;13.832;2024-03-25T08:34:30;92280.09;;;4.29;100.00
12471;BME280;36499;46.484;13.832;2024-03-25T08:36:55;92284.56;;;4.43;100.00
12471;BME280;36499;46.484;13.832;2024-03-25T08:39:21;92284.38;;;4.44;94.26
12471;BME280;36499;46.484;13.832;2024-03-25T08:41:47;92282.91;;;4.58;97.43
12471;BME280;36499;46.484;13.832;2024-03-25T08:44:12;92272.25;;;4.69;100.00
12471;BME280;36499;46.484;13.832;2024-03-25T08:46:38;92273.63;;;4.80;89.62
12471;BME280;36499;46.484;13.832;2024-03-25T08:49:04;92265.03;;;4.96;88.99
12471;BME280;36499;46.484;13.832;2024-03-25T08:51:29;92261.00;;;5.24;89.46
12471;BME280;36499;46.484;13.832;2024-03-25T08:53:55;92261.53;;;5.42;88.81
12471;BME280;36499;46.484;13.832;2024-03-25T08:56:21;92270.31;;;5.48;79.47
12471;BME280;36499;46.484;13.832;2024-03-25T08:58:46;92262.03;;;5.60;81.94
12471;BME280;36499;46.484;13.832;2024-03-25T09:01:12;92258.63;;;5.83;82.58
12471;BME280;36499;46.484;13.832;2024-03-25T09:03:38;92267.03;;;6.00;80.85
12471;BME280;36499;46.484;13.832;2024-03-25T09:06:03;92266.03;;;6.01;75.93
12471;BME280;36499;46.484;13.832;2024-03-25T09:08:29;92269.06;;;6.04;73.50
12471;BME280;36499;46.484;13.832;2024-03-25T09:10:54;92269.72;;;6.21;66.98
12471;BME280;36499;46.484;13.832;2024-03-25T09:13:30;92260.75;;;6.32;58.26
12471;BME280;36499;46.484;13.832;2024-03-25T09:15:56;92268.94;;;6.50;55.65
12471;BME280;36499;46.484;13.832;2024-03-25T09:18:21;92263.06;;;6.71;56.26
12471;BME280;36499;46.484;13.832;2024-03-25T09:20:47;92254.88;;;6.82;50.61
12471;BME280;36499;46.484;13.832;2024-03-25T09:23:13;92253.84;;;7.12;54.03
12471;BME280;36499;46.484;13.832;2024-03-25T09:25:38;92255.25;;;7.15;46.79
12471;BME280;36499;46.484;13.832;2024-03-25T09:28:04;92250.84;;;7.30;46.83
12471;BME280;36499;46.484;13.832;2024-03-25T09:30:30;92261.03;;;7.53;44.81
12471;BME280;36499;46.484;13.832;2024-03-25T09:32:55;92250.34;;;7.41;43.52
12471;BME280;36499;46.484;13.832;2024-03-25T09:35:21;92256.16;;;7.43;40.65
12471;BME280;36499;46.484;13.832;2024-03-25T09:37:47;92253.81;;;7.48;39.19
12471;BME280;36499;46.484;13.832;2024-03-25T09:40:12;92248.50;;;7.78;41.13
12471;BME280;36499;46.484;13.832;2024-03-25T09:42:48;92247.22;;;7.88;39.03
12471;BME280;36499;46.484;13.832;2024-03-25T09:45:18;92235.47;;;7.92;41.42
12471;BME280;36499;46.484;13.832;2024-03-25T09:47:46;92240.31;;;8.30;42.20
12471;BME280;36499;46.484;13.832;2024-03-25T09:50:15;92237.31;;;8.26;38.78
12471;BME280;36499;46.484;13.832;2024-03-25T09:52:41;92245.00;;;8.13;39.95
12471;BME280;36499;46.484;13.832;2024-03-25T09:55:07;92229.94;;;8.23;41.16
12471;BME280;36499;46.484;13.832;2024-03-25T09:57:34;92237.13;;;8.63;38.82
12471;BME280;36499;46.484;13.832;2024-03-25T09:59:59;92239.06;;;8.88;42.90
12471;BME280;36499;46.484;13.832;2024-03-25T10:02:28;92242.97;;;9.19;40.62
12471;BME280;36499;46.484;13.832;2024-03-25T10:04:54;92229.50;;;9.56;38.95
12471;BME280;36499;46.484;13.832;2024-03-25T10:07:24;92232.53;;;9.86;40.02
12471;BME280;36499;46.484;13.832;2024-03-25T10:09:50;92241.66;;;9.49;36.83
12471;BME280;36499;46.484;13.832;2024-03-25T10:12:16;92234.50;;;9.78;39.21
12471;BME280;36499;46.484;13.832;2024-03-25T10:14:42;92237.66;;;9.47;35.04
12471;BME280;36499;46.484;13.832;2024-03-25T10:17:08;92228.88;;;9.48;36.91
12471;BME280;36499;46.484;13.832;2024-03-25T10:19:34;92220.91;;;9.56;37.63
12471;BME280;36499;46.484;13.832;2024-03-25T10:22:06;92218.25;;;9.29;37.34
12471;BME280;36499;46.484;13.832;2024-03-25T10:24:42;92220.50;;;9.46;35.64
12471;BME280;36499;46.484;13.832;2024-03-25T10:29:43;92221.44;;;9.18;36.21
12471;BME280;36499;46.484;13.832;2024-03-25T10:32:09;92221.03;;;9.15;36.00
12471;BME280;36499;46.484;13.832;2024-03-25T10:34:35;92226.59;;;9.12;34.24
12471;BME280;36499;46.484;13.832;2024-03-25T10:37:01;92220.16;;;8.94;33.96
12471;BME280;36499;46.484;13.832;2024-03-25T10:39:31;92220.94;;;8.88;36.25
12471;BME280;36499;46.484;13.832;2024-03-25T10:41:58;92225.31;;;8.94;35.24
12471;BME280;36499;46.484;13.832;2024-03-25T10:44:25;92220.19;;;9.08;35.74
12471;BME280;36499;46.484;13.832;2024-03-25T10:47:02;92213.88;;;9.30;34.71
12471;BME280;36499;46.484;13.832;2024-03-25T10:49:46;92215.09;;;9.27;34.50
12471;BME280;36499;46.484;13.832;2024-03-25T10:52:14;92212.34;;;9.55;35.68
12471;BME280;36499;46.484;13.832;2024-03-25T10:54:45;92204.78;;;10.13;36.56
12471;BME280;36499;46.484;13.832;2024-03-25T10:57:13;92206.50;;;10.66;36.40
12471;BME280;36499;46.484;13.832;2024-03-25T10:59:38;92201.31;;;10.52;32.88
12471;BME280;36499;46.484;13.832;2024-03-25T11:02:04;92203.50;;;10.62;32.18
12471;BME280;36499;46.484;13.832;2024-03-25T11:04:31;92193.78;;;10.95;33.60
12471;BME280;36499;46.484;13.832;2024-03-25T11:07:09;92189.00;;;11.31;34.02
12471;BME280;36499;46.484;13.832;2024-03-25T11:09:36;92176.72;;;11.76;38.59
12471;BME280;36499;46.484;13.832;2024-03-25T11:12:03;92172.78;;;12.16;34.92
12471;BME280;36499;46.484;13.832;2024-03-25T11:14:29;92176.50;;;12.27;35.23
12471;BME280;36499;46.484;13.832;2024-03-25T11:16:55;92168.84;;;12.50;36.45
12471;BME280;36499;46.484;13.832;2024-03-25T11:19:26;92164.47;;;12.69;36.71
12471;BME280;36499;46.484;13.832;2024-03-25T11:21:52;92165.09;;;12.83;36.85
12471;BME280;36499;46.484;13.832;2024-03-25T11:24:29;92167.78;;;12.94;34.89
12471;BME280;36499;46.484;13.832;2024-03-25T11:26:56;92163.94;;;12.97;33.83
12471;BME280;36499;46.484;13.832;2024-03-25T11:29:22;92161.84;;;12.87;30.66
12471;BME280;36499;46.484;13.832;2024-03-25T11:31:52;92158.72;;;12.97;34.49
12471;BME280;36499;46.484;13.832;2024-03-25T11:34:19;92156.25;;;13.02;33.86
12471;BME280;36499;46.484;13.832;2024-03-25T11:36:44;92156.94;;;12.61;29.56
12471;BME280;36499;46.484;13.832;2024-03-25T11:39:10;92153.50;;;11.49;30.60
12471;BME280;36499;46.484;13.832;2024-03-25T11:41:40;92152.06;;;11.15;32.04
12471;BME280;36499;46.484;13.832;2024-03-25T11:44:08;92137.38;;;11.66;34.38
12471;BME280;36499;46.484;13.832;2024-03-25T11:46:36;92145.34;;;11.71;31.33
12471;BME280;36499;46.484;13.832;2024-03-25T11:49:07;92128.94;;;12.13;35.12
12471;BME280;36499;46.484;13.832;2024-03-25T11:51:35;92133.44;;;12.43;34.68
12471;BME280;36499;46.484;13.832;2024-03-25T11:54:04;92133.63;;;12.66;34.99
12471;BME280;36499;46.484;13.832;2024-03-25T11:56:33;92129.75;;;12.87;35.38
12471;BME280;36499;46.484;13.832;2024-03-25T11:58:59;92113.97;;;13.12;38.54
12471;BME280;36499;46.484;13.832;2024-03-25T12:01:24;92107.97;;;13.11;33.07
12471;BME280;36499;46.484;13.832;2024-03-25T12:03:50;92123.50;;;13.06;33.17
12471;BME280;36499;46.484;13.832;2024-03-25T12:06:16;92118.53;;;12.86;32.37
12471;BME280;36499;46.484;13.832;2024-03-25T12:08:41;92117.50;;;13.06;34.12
12471;BME280;36499;46.484;13.832;2024-03-25T12:11:09;92104.88;;;13.33;37.15
12471;BME280;36499;46.484;13.832;2024-03-25T12:13:44;92103.19;;;13.50;34.88
12471;BME280;36499;46.484;13.832;2024-03-25T12:16:10;92098.31;;;13.42;33.20
12471;BME280;36499;46.484;13.832;2024-03-25T12:18:36;92099.44;;;13.46;33.64
12471;BME280;36499;46.484;13.832;2024-03-25T12:21:05;92096.25;;;13.32;31.21
12471;BME280;36499;46.484;13.832;2024-03-25T12:23:32;92094.47;;;13.14;29.27
12471;BME280;36499;46.484;13.832;2024-03-25T12:26:02;92082.00;;;13.16;34.85
12471;BME280;36499;46.484;13.832;2024-03-25T12:28:30;92086.28;;;13.41;34.44
12471;BME280;36499;46.484;13.832;2024-03-25T12:30:56;92089.13;;;13.51;31.35
12471;BME280;36499;46.484;13.832;2024-03-25T12:33:23;92081.78;;;13.71;32.83
12471;BME280;36499;46.484;13.832;2024-03-25T12:35:50;92076.75;;;13.58;30.95
12471;BME280;36499;46.484;13.832;2024-03-25T12:38:26;92074.94;;;13.58;30.03
12471;BME280;36499;46.484;13.832;2024-03-25T12:41:04;92079.81;;;13.02;32.15
12471;BME280;36499;46.484;13.832;2024-03-25T12:43:34;92074.41;;;13.15;31.00
12471;BME280;36499;46.484;13.832;2024-03-25T12:46:00;92075.13;;;13.34;32.44